Main page
METAR-TAF:

METAR-TAF

Airports :

London Southend Airport

London-Southend, England

latitude: 51-34N, longitude: 000-42E, elevation: 15 m

Current weather observation

The report was made 38 minutes ago, at 21:50 UTC
Wind 11 kt from the East
Temperature 9°C
Humidity 71%
Pressure 1028 hPa
Visibility 10 km or more
no clouds below 1500 m and no cumulonimbus

METAR: EGMC 172150Z 09011KT CAVOK 09/04 Q1028

Time: 22:28 (22:28 UTC)

Forecast

The report was made 2 hours and 27 minutes ago, at 20:01 UTC
Forecast valid from 17 at 21 UTC to 18 at 06 UTC
Wind 9 kt from the East
Visibility 10 km or more
no clouds below 1500 m and no cumulonimbus
Becoming
from 17 at 21 UTC to 17 at 23 UTC
Visibility: 8000 m

TAF: EGMC 172001Z 1721/1806 09009KT CAVOK BECMG 1721/1723 8000

Weather observations and forecasts of more than 4000 airports (METAR and TAF reports).

The available stations are represented by yellow and red dots on the map.

Hover mouse over dot to see the name of the station.

Then click to see weather observations and forecasts.

To change the map : click on the green buttons with a black cross to zoom in, on the green button with a dash to zoom out, or on the green arrows for adjacent maps.


METAR-TAF: